createdAt,value
2023-05-09T00:00:32.368Z,70.86
2023-05-09T00:04:51.270Z,70.25
2023-05-09T00:08:56.377Z,70.43
2023-05-09T00:12:59.309Z,70.81
2023-05-09T00:17:01.806Z,71.10
2023-05-09T00:21:03.998Z,70.96
2023-05-09T00:25:07.383Z,71.24
2023-05-09T00:29:09.306Z,71.49
2023-05-09T00:33:11.413Z,71.51
2023-05-09T00:37:13.309Z,71.52
2023-05-09T00:41:15.307Z,71.98
2023-05-09T00:45:18.291Z,71.99
2023-05-09T00:49:20.528Z,71.71
2023-05-09T00:53:29.552Z,71.21
2023-05-09T00:57:31.424Z,71.00
2023-05-09T01:01:33.288Z,70.98
2023-05-09T01:05:49.509Z,71.49
2023-05-09T01:09:55.618Z,71.57
2023-05-09T01:14:15.520Z,72.02
2023-05-09T01:18:39.111Z,72.41
2023-05-09T01:23:15.821Z,72.80
2023-05-09T01:27:59.286Z,72.68
2023-05-09T01:32:15.982Z,72.93
2023-05-09T01:36:20.946Z,73.06
2023-05-09T01:40:43.035Z,73.10
2023-05-09T01:44:55.771Z,72.98
2023-05-09T01:48:59.253Z,73.00
2023-05-09T01:53:03.080Z,73.16
2023-05-09T01:57:16.556Z,73.34
2023-05-09T02:01:23.696Z,73.59
2023-05-09T02:05:36.974Z,73.68
2023-05-09T02:09:44.257Z,73.61
2023-05-09T02:13:46.234Z,73.32
2023-05-09T02:17:48.346Z,73.54
2023-05-09T02:21:50.314Z,73.88
2023-05-09T02:25:53.748Z,74.29
2023-05-09T02:30:07.534Z,74.55
2023-05-09T02:34:11.325Z,74.61
2023-05-09T02:38:14.367Z,74.26
2023-05-09T02:42:21.634Z,74.35
2023-05-09T02:46:23.624Z,74.24
2023-05-09T02:50:27.824Z,74.24
2023-05-09T02:54:29.989Z,74.45
2023-05-09T02:58:31.871Z,74.84
2023-05-09T03:02:33.938Z,75.12
2023-05-09T03:06:36.075Z,75.45
2023-05-09T03:10:38.024Z,75.71
2023-05-09T03:14:40.364Z,75.73
2023-05-09T03:18:42.800Z,75.59
2023-05-09T03:22:44.838Z,75.75
2023-05-09T03:26:46.932Z,75.59
2023-05-09T03:30:50.064Z,75.40
2023-05-09T03:34:54.919Z,75.58
2023-05-09T03:38:57.318Z,75.88
2023-05-09T03:42:59.581Z,75.97
2023-05-09T03:47:01.808Z,76.35
2023-05-09T03:51:09.254Z,76.41
2023-05-09T03:55:18.779Z,76.47
2023-05-09T03:59:20.798Z,76.82
2023-05-09T04:03:34.972Z,77.17
2023-05-09T04:07:38.834Z,77.74
2023-05-09T04:11:40.964Z,78.02
2023-05-09T04:15:46.460Z,77.98
2023-05-09T04:19:48.809Z,77.88
2023-05-09T04:23:51.319Z,77.33
2023-05-09T04:28:00.123Z,76.75
2023-05-09T04:32:07.994Z,75.61
2023-05-09T04:36:10.822Z,75.63
2023-05-09T04:40:13.354Z,75.29
2023-05-09T04:44:22.976Z,75.27
2023-05-09T04:48:25.092Z,74.67
2023-05-09T04:52:27.427Z,74.24
2023-05-09T04:56:29.797Z,73.67
2023-05-09T05:00:37.387Z,73.16
2023-05-09T05:04:39.836Z,72.76
2023-05-09T05:08:42.738Z,71.93
2023-05-09T05:12:46.061Z,71.39
2023-05-09T05:16:50.592Z,70.67
2023-05-09T05:20:55.262Z,69.81
2023-05-09T05:24:58.902Z,69.35
2023-05-09T05:29:01.642Z,68.87
2023-05-09T05:33:04.156Z,68.50
2023-05-09T05:37:06.451Z,68.29
2023-05-09T05:41:12.300Z,68.03
2023-05-09T05:45:15.565Z,67.68
2023-05-09T05:49:21.122Z,67.34
2023-05-09T05:53:23.125Z,66.85
2023-05-09T05:57:27.429Z,66.30
2023-05-09T06:01:29.984Z,65.37
2023-05-09T06:05:34.094Z,64.88
2023-05-09T06:09:36.225Z,64.44
2023-05-09T06:13:38.572Z,64.08
2023-05-09T06:17:41.122Z,63.30
2023-05-09T06:21:44.177Z,62.82
2023-05-09T06:25:46.031Z,62.65
2023-05-09T06:29:48.443Z,61.80
2023-05-09T06:33:50.590Z,61.01
2023-05-09T06:37:52.653Z,59.93
2023-05-09T06:41:55.229Z,58.89
2023-05-09T06:46:03.944Z,58.05
2023-05-09T06:50:06.550Z,57.51
2023-05-09T06:54:08.674Z,56.29
2023-05-09T06:58:11.892Z,55.16
2023-05-09T07:02:14.864Z,55.16
2023-05-09T07:06:17.151Z,54.50
2023-05-09T07:10:19.162Z,54.15
2023-05-09T07:14:21.087Z,54.04
2023-05-09T07:18:23.057Z,53.41
2023-05-09T07:22:25.022Z,53.29
2023-05-09T07:26:26.929Z,52.52
2023-05-09T07:30:28.841Z,51.48
2023-05-09T07:34:30.794Z,50.76
2023-05-09T07:38:32.640Z,50.12
2023-05-09T07:42:34.618Z,49.14
2023-05-09T07:46:38.074Z,47.60
2023-05-09T07:50:39.950Z,46.83
2023-05-09T07:54:41.832Z,46.84
2023-05-09T07:58:43.686Z,45.51
2023-05-09T08:02:46.086Z,43.21
2023-05-09T08:06:48.546Z,42.82
2023-05-09T08:10:50.469Z,40.59
2023-05-09T08:14:52.352Z,40.17
2023-05-09T08:18:54.512Z,40.83
2023-05-09T08:22:56.585Z,40.81
2023-05-09T08:26:58.468Z,39.82
2023-05-09T08:31:00.552Z,38.12
2023-05-09T08:35:02.508Z,39.43
2023-05-09T08:39:04.454Z,39.01
2023-05-09T08:43:07.387Z,37.93
2023-05-09T08:47:10.189Z,37.77
2023-05-09T08:51:13.352Z,37.71
2023-05-09T08:55:16.013Z,36.98
2023-05-09T08:59:19.198Z,36.81
2023-05-09T09:03:21.772Z,36.44
2023-05-09T09:07:26.796Z,36.80
2023-05-09T09:11:30.249Z,37.09
2023-05-09T09:15:37.149Z,36.17
2023-05-09T09:19:43.106Z,35.62
2023-05-09T09:23:49.911Z,36.18
2023-05-09T09:27:51.816Z,36.33
2023-05-09T09:31:56.179Z,36.21
2023-05-09T09:35:59.248Z,35.86
2023-05-09T09:40:02.504Z,35.81
2023-05-09T09:44:11.623Z,35.00
2023-05-09T09:48:13.652Z,35.04
2023-05-09T09:52:26.626Z,35.27
2023-05-09T09:56:42.698Z,35.09
2023-05-09T10:00:45.716Z,33.62
2023-05-09T10:04:47.865Z,34.44
2023-05-09T10:08:49.965Z,34.39
2023-05-09T10:12:55.908Z,34.12
2023-05-09T10:16:58.797Z,34.18
2023-05-09T10:21:02.836Z,34.03
2023-05-09T10:25:12.419Z,34.02
2023-05-09T10:29:22.255Z,33.57
2023-05-09T10:33:30.774Z,33.44
2023-05-09T10:37:33.701Z,33.66
2023-05-09T10:41:37.197Z,33.16
2023-05-09T10:45:40.411Z,33.00
2023-05-09T10:49:44.370Z,33.23
2023-05-09T10:53:50.592Z,33.29
2023-05-09T10:57:54.908Z,32.80
2023-05-09T11:02:00.649Z,32.73
2023-05-09T11:06:02.698Z,32.79
2023-05-09T11:10:19.137Z,32.78
2023-05-09T11:14:31.894Z,32.52
2023-05-09T11:18:33.786Z,32.10
2023-05-09T11:22:44.108Z,31.98
2023-05-09T11:26:47.982Z,31.45
2023-05-09T11:30:50.821Z,31.30
2023-05-09T11:35:05.943Z,31.77
2023-05-09T11:39:10.160Z,31.73
2023-05-09T11:43:12.510Z,31.67
2023-05-09T11:47:16.399Z,31.81
2023-05-09T11:51:18.966Z,31.38
2023-05-09T11:55:22.254Z,31.10
2023-05-09T11:59:24.202Z,31.12
2023-05-09T12:03:26.999Z,30.96
2023-05-09T12:07:30.254Z,30.67
2023-05-09T12:11:32.272Z,30.83
2023-05-09T12:15:38.386Z,31.21
2023-05-09T12:19:40.361Z,30.85
2023-05-09T12:23:42.346Z,30.99
2023-05-09T12:27:44.345Z,31.26
2023-05-09T12:31:46.656Z,31.70
2023-05-09T12:36:10.627Z,30.62
2023-05-09T12:40:14.929Z,30.85
2023-05-09T12:44:24.545Z,30.61
2023-05-09T12:48:26.980Z,31.01
2023-05-09T12:52:41.757Z,30.24
2023-05-09T12:56:56.356Z,29.96
2023-05-09T13:00:59.334Z,30.15
2023-05-09T13:05:05.083Z,30.74
2023-05-09T13:09:07.712Z,30.93
2023-05-09T13:13:16.048Z,30.44
2023-05-09T13:17:17.960Z,31.01
2023-05-09T13:21:20.549Z,31.14
2023-05-09T13:25:22.542Z,30.69
2023-05-09T13:29:24.474Z,30.40
2023-05-09T13:33:27.142Z,30.25
2023-05-09T13:37:29.088Z,30.43
2023-05-09T13:41:33.030Z,29.85
2023-05-09T13:45:34.892Z,29.95
2023-05-09T13:49:37.874Z,29.53
2023-05-09T13:53:40.063Z,29.68
2023-05-09T13:57:42.745Z,30.00
2023-05-09T14:01:44.955Z,29.93
2023-05-09T14:05:48.029Z,29.57
2023-05-09T14:09:53.987Z,29.46
2023-05-09T14:14:01.057Z,29.23
2023-05-09T14:18:03.068Z,29.46
2023-05-09T14:22:05.045Z,29.46
2023-05-09T14:26:07.842Z,29.06
2023-05-09T14:30:10.199Z,28.59
2023-05-09T14:34:12.137Z,28.46
2023-05-09T14:38:14.142Z,28.58
2023-05-09T14:42:16.243Z,27.73
2023-05-09T14:46:18.326Z,27.93
2023-05-09T14:50:21.350Z,28.14
2023-05-09T14:54:23.656Z,28.36
2023-05-09T14:58:25.877Z,28.64
2023-05-09T15:02:27.816Z,28.44
2023-05-09T15:06:30.475Z,28.31
2023-05-09T15:10:32.917Z,28.18
2023-05-09T15:14:34.825Z,28.34
2023-05-09T15:18:36.721Z,28.82
2023-05-09T15:22:39.169Z,28.57
2023-05-09T15:26:41.113Z,28.68
2023-05-09T15:30:44.853Z,28.99
2023-05-09T15:34:47.108Z,29.11
2023-05-09T15:38:49.762Z,29.57
2023-05-09T15:42:51.918Z,29.34
2023-05-09T15:46:54.959Z,29.22
2023-05-09T15:50:56.885Z,29.45
2023-05-09T15:54:59.598Z,29.26
2023-05-09T15:59:02.229Z,29.30
2023-05-09T16:03:04.227Z,29.07
2023-05-09T16:07:06.325Z,29.32
2023-05-09T16:11:09.817Z,28.82
2023-05-09T16:15:11.879Z,28.86
2023-05-09T16:19:13.812Z,28.88
2023-05-09T16:23:15.807Z,28.84
2023-05-09T16:27:17.659Z,28.88
2023-05-09T16:31:20.344Z,28.96
2023-05-09T16:35:22.579Z,29.31
2023-05-09T16:39:27.758Z,29.38
2023-05-09T16:43:30.311Z,29.55
2023-05-09T16:47:32.365Z,29.97
2023-05-09T16:51:35.624Z,30.37
2023-05-09T16:55:37.782Z,30.88
2023-05-09T16:59:40.095Z,31.13
2023-05-09T17:03:42.739Z,31.27
2023-05-09T17:07:44.833Z,31.60
2023-05-09T17:11:47.788Z,31.57
2023-05-09T17:15:52.224Z,31.66
2023-05-09T17:19:54.220Z,31.75
2023-05-09T17:23:56.210Z,32.04
2023-05-09T17:27:58.286Z,32.14
2023-05-09T17:32:00.988Z,32.47
2023-05-09T17:36:03.239Z,32.67
2023-05-09T17:40:07.578Z,33.04
2023-05-09T17:44:10.703Z,33.37
2023-05-09T17:48:13.115Z,33.71
2023-05-09T17:52:15.072Z,34.01
2023-05-09T17:56:16.989Z,34.41
2023-05-09T18:00:19.225Z,34.70
2023-05-09T18:04:21.405Z,35.07
2023-05-09T18:08:23.312Z,35.37
2023-05-09T18:12:28.380Z,35.67
2023-05-09T18:16:30.427Z,36.04
2023-05-09T18:20:33.293Z,36.29
2023-05-09T18:24:36.256Z,36.62
2023-05-09T18:28:40.923Z,36.83
2023-05-09T18:32:42.874Z,37.10
2023-05-09T18:36:44.804Z,37.35
2023-05-09T18:40:47.769Z,37.65
2023-05-09T18:44:49.932Z,37.89
2023-05-09T18:48:52.232Z,38.12
2023-05-09T18:52:54.409Z,38.43
2023-05-09T18:56:58.063Z,38.83
2023-05-09T19:01:01.225Z,39.26
2023-05-09T19:05:07.608Z,39.75
2023-05-09T19:09:09.439Z,40.32
2023-05-09T19:13:13.997Z,40.88
2023-05-09T19:17:17.441Z,41.42
2023-05-09T19:25:39.438Z,42.57
2023-05-09T19:29:41.864Z,43.12
2023-05-09T19:33:44.967Z,43.91
2023-05-09T19:37:46.971Z,44.61
2023-05-09T19:41:49.020Z,44.84
2023-05-09T19:45:51.331Z,45.44
2023-05-09T19:49:53.439Z,45.72
2023-05-09T19:53:55.697Z,46.14
2023-05-09T19:57:57.609Z,46.50
2023-05-09T20:01:59.488Z,46.69
2023-05-09T20:10:21.240Z,47.19
2023-05-09T20:14:23.300Z,47.35
2023-05-09T20:18:26.503Z,47.66
2023-05-09T20:22:28.621Z,48.17
2023-05-09T20:26:30.510Z,48.51
2023-05-09T20:30:32.890Z,48.79
2023-05-09T20:34:34.854Z,49.07
2023-05-09T20:38:36.694Z,49.26
2023-05-09T20:42:38.756Z,49.45
2023-05-09T20:46:41.141Z,49.53
2023-05-09T20:50:43.382Z,49.70
2023-05-09T20:54:48.395Z,49.89
2023-05-09T20:58:50.254Z,50.12
2023-05-09T21:02:57.613Z,50.30
2023-05-09T21:07:00.563Z,50.34
2023-05-09T21:11:02.427Z,50.34
2023-05-09T21:15:04.898Z,50.47
2023-05-09T21:19:08.264Z,50.55
2023-05-09T21:23:10.213Z,50.65
2023-05-09T21:27:12.105Z,50.85
2023-05-09T21:31:14.323Z,51.18
2023-05-09T21:35:16.496Z,51.35
2023-05-09T21:39:18.319Z,51.62
2023-05-09T21:43:20.366Z,51.76
2023-05-09T21:47:22.381Z,51.92
2023-05-09T21:51:24.511Z,51.94
2023-05-09T21:55:27.012Z,52.15
2023-05-09T21:59:28.825Z,52.11
2023-05-09T22:03:30.951Z,52.20
2023-05-09T22:07:32.964Z,52.23
2023-05-09T22:11:34.933Z,52.28
2023-05-09T22:15:36.779Z,52.25
2023-05-09T22:19:38.669Z,52.46
2023-05-09T22:23:40.500Z,52.41
2023-05-09T22:27:42.400Z,52.59
2023-05-09T22:31:44.372Z,52.63
2023-05-09T22:35:46.580Z,52.61
2023-05-09T22:39:48.464Z,52.73
2023-05-09T22:43:50.471Z,52.80
2023-05-09T22:47:52.373Z,52.84
2023-05-09T22:51:54.312Z,52.86
2023-05-09T22:55:56.766Z,52.70
2023-05-09T22:59:58.662Z,52.73
2023-05-09T23:04:00.647Z,52.49
2023-05-09T23:08:02.730Z,52.40
2023-05-09T23:12:05.085Z,52.20
2023-05-09T23:16:07.020Z,52.17
2023-05-09T23:20:09.325Z,51.98
2023-05-09T23:24:11.181Z,52.04
2023-05-09T23:28:13.046Z,52.06
2023-05-09T23:32:14.990Z,52.16
2023-05-09T23:36:16.845Z,52.26
2023-05-09T23:40:19.091Z,52.52
2023-05-09T23:44:20.989Z,52.80
2023-05-09T23:48:23.405Z,52.86
2023-05-09T23:52:25.453Z,53.04
2023-05-09T23:56:27.362Z,53.16
